RYR21UN EPWR-LPPT
Flight info
| Callsign | RYR21UN |
|---|---|
| Flight time | N/A |
| Altitude | 36000 |
| Route | ULGIL3A ULGIL T707 TOMTI DCT NAVEK DCT OKG DCT AMOSA DCT DKB DCT TEDGO N869 NATOR DCT LUTIX DCT BENOT DCT NEMOS DCT NINTU DCT MEBAK DCT REPSI DCT LERGA DCT MINSO DCT NARAK DCT AGN DCT MAQAB DCT TIVLI N869 ZAR Z245 CJN N975 CCS DCT ELVAR DCT UPULO UPULO2A |
| Aircraft | A320/M-SDE3FGHIRWY/LB1 |
Departure
| Time | 2026-05-03 20:23 |
|---|---|
| Airport | Copernicus Wrocław Airport (EPWR) |
Arrival
| Time | N/A |
|---|---|
| Airport | Lisbon Humberto Delgado Airport (LPPT) |
| Time | Latitude | Longitude | Altitude | Speed | Heading |
|---|---|---|---|---|---|
| 2026-05-03 20:15 | 51.10806 | 16.87936 | 403 ft | 0 kts | 296° |
| 2026-05-03 20:17 | 51.10808 | 16.87932 | 403 ft | 1 kts | 296° |
| 2026-05-03 20:17 | 51.10816 | 16.87905 | 403 ft | 4 kts | 296° |
| 2026-05-03 20:18 | 51.10832 | 16.87852 | 402 ft | 7 kts | 296° |
| 2026-05-03 20:18 | 51.10856 | 16.87774 | 403 ft | 9 kts | 296° |
| 2026-05-03 20:18 | 51.10886 | 16.87673 | 403 ft | 10 kts | 296° |
| 2026-05-03 20:18 | 51.10921 | 16.87559 | 403 ft | 13 kts | 296° |
| 2026-05-03 20:19 | 51.10934 | 16.87419 | 401 ft | 15 kts | 229° |
| 2026-05-03 20:19 | 51.10837 | 16.87335 | 403 ft | 17 kts | 206° |
| 2026-05-03 20:19 | 51.10773 | 16.87285 | 403 ft | 0 kts | 206° |
| 2026-05-03 20:20 | 51.10770 | 16.87283 | 403 ft | 2 kts | 206° |
| 2026-05-03 20:20 | 51.10737 | 16.87257 | 404 ft | 8 kts | 206° |
| 2026-05-03 20:20 | 51.10709 | 16.87146 | 404 ft | 17 kts | 289° |
| 2026-05-03 20:21 | 51.10772 | 16.86944 | 400 ft | 22 kts | 295° |
| 2026-05-03 20:21 | 51.10824 | 16.86709 | 402 ft | 23 kts | 268° |
| 2026-05-03 20:21 | 51.10867 | 16.86638 | 401 ft | 13 kts | 102° |
| 2026-05-03 20:21 | 51.10843 | 16.86707 | 401 ft | 0 kts | 115° |
| 2026-05-03 20:22 | 51.10843 | 16.86708 | 401 ft | 0 kts | 115° |
| 2026-05-03 20:22 | 51.10840 | 16.86716 | 402 ft | 10 kts | 115° |
| 2026-05-03 20:22 | 51.10694 | 16.87183 | 404 ft | 81 kts | 117° |
| 2026-05-03 20:22 | 51.10365 | 16.88258 | 406 ft | 132 kts | 116° |
| 2026-05-03 20:23 | 51.09910 | 16.89753 | 464 ft | 164 kts | 120° |
| 2026-05-03 20:23 | 51.09410 | 16.91391 | 1005 ft | 164 kts | 120° |
| 2026-05-03 20:23 | 51.08908 | 16.93017 | 1550 ft | 165 kts | 123° |
| 2026-05-03 20:23 | 51.08408 | 16.94650 | 2094 ft | 164 kts | 125° |
| 2026-05-03 20:24 | 51.07877 | 16.96352 | 2389 ft | 182 kts | 124° |
| 2026-05-03 20:24 | 51.07098 | 16.97991 | 2602 ft | 191 kts | 156° |
| 2026-05-03 20:24 | 51.05807 | 16.98331 | 2906 ft | 197 kts | 198° |
| 2026-05-03 20:24 | 51.04569 | 16.97282 | 3411 ft | 208 kts | 212° |
| 2026-05-03 20:25 | 51.03277 | 16.96191 | 4169 ft | 212 kts | 207° |
| 2026-05-03 20:25 | 51.01915 | 16.95176 | 4854 ft | 220 kts | 206° |
| 2026-05-03 20:25 | 51.00500 | 16.94141 | 5555 ft | 227 kts | 206° |
| 2026-05-03 20:25 | 50.99052 | 16.93076 | 6342 ft | 232 kts | 205° |
| 2026-05-03 20:26 | 50.97577 | 16.91979 | 7103 ft | 235 kts | 206° |
| 2026-05-03 20:26 | 50.96108 | 16.90874 | 7900 ft | 238 kts | 206° |
| 2026-05-03 20:26 | 50.94609 | 16.89733 | 8681 ft | 242 kts | 206° |
| 2026-05-03 20:26 | 50.93093 | 16.88554 | 8940 ft | 242 kts | 211° |
| 2026-05-03 20:27 | 50.91892 | 16.86749 | 9005 ft | 241 kts | 240° |
| 2026-05-03 20:27 | 50.91526 | 16.84172 | 9360 ft | 247 kts | 274° |
| 2026-05-03 20:27 | 50.92057 | 16.81518 | 10151 ft | 253 kts | 291° |
| 2026-05-03 20:27 | 50.92803 | 16.79019 | 10868 ft | 255 kts | 292° |
| 2026-05-03 20:28 | 50.93587 | 16.76478 | 11589 ft | 258 kts | 292° |
| 2026-05-03 20:28 | 50.94381 | 16.73916 | 12322 ft | 260 kts | 292° |
| 2026-05-03 20:28 | 50.95180 | 16.71330 | 13050 ft | 262 kts | 291° |
| 2026-05-03 20:28 | 50.95981 | 16.68724 | 13775 ft | 264 kts | 291° |
| 2026-05-03 20:29 | 50.96786 | 16.66093 | 14409 ft | 266 kts | 291° |
| 2026-05-03 20:29 | 50.97603 | 16.63410 | 14841 ft | 279 kts | 291° |
| 2026-05-03 20:29 | 50.98473 | 16.60526 | 15008 ft | 299 kts | 291° |
| 2026-05-03 20:29 | 50.99386 | 16.57510 | 15497 ft | 306 kts | 291° |
| 2026-05-03 20:30 | 51.00317 | 16.54446 | 16095 ft | 310 kts | 291° |
| 2026-05-03 20:30 | 51.01258 | 16.51356 | 16719 ft | 312 kts | 291° |
| 2026-05-03 20:30 | 51.02061 | 16.48161 | 17338 ft | 311 kts | 281° |
| 2026-05-03 20:30 | 51.02454 | 16.44718 | 17508 ft | 325 kts | 273° |
| 2026-05-03 20:31 | 51.02723 | 16.41048 | 17658 ft | 343 kts | 273° |
| 2026-05-03 20:31 | 51.03002 | 16.37210 | 17887 ft | 357 kts | 274° |
| 2026-05-03 20:31 | 51.03548 | 16.33309 | 18376 ft | 366 kts | 284° |
| 2026-05-03 20:31 | 51.04338 | 16.29449 | 18896 ft | 370 kts | 284° |
| 2026-05-03 20:32 | 51.05135 | 16.25547 | 19441 ft | 373 kts | 285° |
| 2026-05-03 20:32 | 51.05937 | 16.21603 | 19993 ft | 376 kts | 285° |
| 2026-05-03 20:32 | 51.06738 | 16.17636 | 20534 ft | 379 kts | 285° |
| 2026-05-03 20:32 | 51.07542 | 16.13620 | 21053 ft | 382 kts | 285° |
| 2026-05-03 20:33 | 51.08351 | 16.09580 | 21591 ft | 385 kts | 285° |
| 2026-05-03 20:33 | 51.09006 | 16.05450 | 22094 ft | 386 kts | 276° |
| 2026-05-03 20:33 | 51.09171 | 16.01197 | 22585 ft | 386 kts | 266° |
| 2026-05-03 20:33 | 51.08825 | 15.96961 | 23069 ft | 388 kts | 256° |
| 2026-05-03 20:34 | 51.08058 | 15.92839 | 23538 ft | 390 kts | 251° |
| 2026-05-03 20:34 | 51.07233 | 15.88709 | 23939 ft | 393 kts | 252° |
| 2026-05-03 20:34 | 51.06406 | 15.84547 | 24334 ft | 396 kts | 252° |
| 2026-05-03 20:34 | 51.05573 | 15.80358 | 24725 ft | 399 kts | 252° |
| 2026-05-03 20:35 | 51.04735 | 15.76135 | 25122 ft | 401 kts | 252° |
| 2026-05-03 20:35 | 51.03893 | 15.71906 | 25504 ft | 403 kts | 252° |
| 2026-05-03 20:35 | 51.03046 | 15.67646 | 25880 ft | 406 kts | 252° |
| 2026-05-03 20:35 | 51.02192 | 15.63362 | 26243 ft | 408 kts | 252° |
| 2026-05-03 20:36 | 51.01344 | 15.59113 | 26599 ft | 410 kts | 252° |
| 2026-05-03 20:36 | 51.00474 | 15.54782 | 26948 ft | 413 kts | 252° |
| 2026-05-03 20:36 | 50.99599 | 15.50457 | 27496 ft | 409 kts | 252° |
| 2026-05-03 20:36 | 50.98724 | 15.46153 | 27862 ft | 412 kts | 252° |
| 2026-05-03 20:37 | 50.97841 | 15.41816 | 28169 ft | 415 kts | 252° |
| 2026-05-03 20:37 | 50.96953 | 15.37445 | 28530 ft | 417 kts | 252° |
| 2026-05-03 20:37 | 50.96063 | 15.33071 | 28960 ft | 416 kts | 252° |
| 2026-05-03 20:37 | 50.95124 | 15.28708 | 29248 ft | 420 kts | 248° |
| 2026-05-03 20:38 | 50.93964 | 15.24420 | 29476 ft | 425 kts | 247° |
| 2026-05-03 20:38 | 50.92791 | 15.20114 | 29821 ft | 427 kts | 246° |
| 2026-05-03 20:38 | 50.91610 | 15.15782 | 30142 ft | 429 kts | 246° |
| 2026-05-03 20:38 | 50.90426 | 15.11449 | 30544 ft | 428 kts | 246° |
| 2026-05-03 20:39 | 50.89243 | 15.07132 | 30938 ft | 428 kts | 246° |
| 2026-05-03 20:39 | 50.88058 | 15.02821 | 31342 ft | 427 kts | 246° |
| 2026-05-03 20:39 | 50.86871 | 14.98514 | 31745 ft | 426 kts | 246° |
| 2026-05-03 20:39 | 50.85686 | 14.94224 | 32149 ft | 425 kts | 246° |
| 2026-05-03 20:40 | 50.84505 | 14.89948 | 32553 ft | 424 kts | 246° |
| 2026-05-03 20:40 | 50.83326 | 14.85687 | 32897 ft | 423 kts | 246° |
| 2026-05-03 20:40 | 50.82143 | 14.81426 | 33263 ft | 423 kts | 246° |
| 2026-05-03 20:40 | 50.80960 | 14.77172 | 33652 ft | 423 kts | 246° |
| 2026-05-03 20:41 | 50.79779 | 14.72923 | 34040 ft | 422 kts | 246° |
| 2026-05-03 20:41 | 50.78596 | 14.68680 | 34384 ft | 421 kts | 246° |
| 2026-05-03 20:41 | 50.77412 | 14.64452 | 34715 ft | 420 kts | 246° |
| 2026-05-03 20:41 | 50.76229 | 14.60237 | 35059 ft | 419 kts | 246° |
| 2026-05-03 20:42 | 50.75045 | 14.56033 | 35389 ft | 419 kts | 246° |
| 2026-05-03 20:42 | 50.73864 | 14.51845 | 35694 ft | 418 kts | 246° |
| 2026-05-03 20:42 | 50.72681 | 14.47650 | 35924 ft | 418 kts | 246° |
| 2026-05-03 20:43 | 50.70298 | 14.39203 | 35978 ft | 425 kts | 246° |
| 2026-05-03 20:43 | 50.67887 | 14.30681 | 35966 ft | 426 kts | 246° |
| 2026-05-03 20:44 | 50.65461 | 14.22159 | 35969 ft | 426 kts | 246° |
| 2026-05-03 20:44 | 50.63047 | 14.13690 | 35969 ft | 426 kts | 246° |
| 2026-05-03 20:45 | 50.60617 | 14.05180 | 35991 ft | 425 kts | 245° |
| 2026-05-03 20:45 | 50.58187 | 13.96705 | 35984 ft | 424 kts | 245° |
| 2026-05-03 20:46 | 50.55753 | 13.88281 | 35985 ft | 423 kts | 245° |
| 2026-05-03 20:46 | 50.53306 | 13.79848 | 35991 ft | 423 kts | 245° |
| 2026-05-03 20:47 | 50.50862 | 13.71437 | 35975 ft | 423 kts | 245° |
| 2026-05-03 20:47 | 50.48418 | 13.63027 | 35979 ft | 424 kts | 245° |
| 2026-05-03 20:48 | 50.45966 | 13.54627 | 35974 ft | 423 kts | 245° |
| 2026-05-03 20:48 | 50.43502 | 13.46243 | 35974 ft | 423 kts | 245° |
| 2026-05-03 20:49 | 50.41041 | 13.37872 | 35984 ft | 423 kts | 245° |
| 2026-05-03 20:49 | 50.38568 | 13.29520 | 35976 ft | 423 kts | 245° |
| 2026-05-03 20:50 | 50.36087 | 13.21173 | 35979 ft | 422 kts | 245° |
| 2026-05-03 20:50 | 50.33604 | 13.12838 | 35984 ft | 422 kts | 245° |
| 2026-05-03 20:51 | 50.31129 | 13.04572 | 36006 ft | 423 kts | 245° |
| 2026-05-03 20:51 | 50.28603 | 12.96279 | 36017 ft | 422 kts | 240° |
| 2026-05-03 20:52 | 50.25550 | 12.88442 | 36019 ft | 422 kts | 238° |
| 2026-05-03 20:52 | 50.22470 | 12.80628 | 36018 ft | 422 kts | 238° |
| 2026-05-03 20:53 | 50.19888 | 12.74095 | 36018 ft | 422 kts | 238° |
| 2026-05-03 20:53 | 50.16814 | 12.66354 | 36009 ft | 422 kts | 238° |
| 2026-05-03 20:54 | 50.13717 | 12.58578 | 36004 ft | 422 kts | 238° |
| 2026-05-03 20:54 | 50.09060 | 12.46930 | 35997 ft | 422 kts | 238° |
| 2026-05-03 20:55 | 50.05966 | 12.39157 | 36000 ft | 423 kts | 239° |
| 2026-05-03 20:55 | 50.03151 | 12.31132 | 36000 ft | 423 kts | 242° |
| 2026-05-03 20:56 | 50.00494 | 12.22975 | 36002 ft | 423 kts | 242° |
| 2026-05-03 20:56 | 49.97799 | 12.14839 | 35992 ft | 423 kts | 242° |
| 2026-05-03 20:57 | 49.95043 | 12.06758 | 35994 ft | 423 kts | 241° |
| 2026-05-03 20:57 | 49.92262 | 11.98705 | 35995 ft | 423 kts | 241° |
| 2026-05-03 20:58 | 49.89482 | 11.90655 | 35997 ft | 423 kts | 241° |
| 2026-05-03 20:58 | 49.86711 | 11.82607 | 36016 ft | 423 kts | 241° |
| 2026-05-03 20:59 | 49.83937 | 11.74578 | 36012 ft | 422 kts | 241° |
| 2026-05-03 20:59 | 49.81151 | 11.66574 | 36001 ft | 422 kts | 240° |
| 2026-05-03 21:00 | 49.78833 | 11.59938 | 36008 ft | 422 kts | 240° |
| 2026-05-03 21:00 | 49.75578 | 11.50615 | 36001 ft | 421 kts | 240° |
| 2026-05-03 21:01 | 49.72788 | 11.42638 | 35999 ft | 421 kts | 240° |
| 2026-05-03 21:01 | 49.69992 | 11.34680 | 35999 ft | 422 kts | 240° |
| 2026-05-03 21:02 | 49.67211 | 11.26789 | 36015 ft | 421 kts | 240° |
| 2026-05-03 21:02 | 49.64413 | 11.18874 | 36014 ft | 420 kts | 240° |
| 2026-05-03 21:03 | 49.61609 | 11.10963 | 36019 ft | 420 kts | 240° |
| 2026-05-03 21:03 | 49.58794 | 11.03076 | 36020 ft | 420 kts | 240° |
| 2026-05-03 21:04 | 49.55983 | 10.95195 | 36020 ft | 420 kts | 240° |
| 2026-05-03 21:04 | 49.53168 | 10.87324 | 36018 ft | 420 kts | 240° |
| 2026-05-03 21:05 | 49.50040 | 10.79784 | 36024 ft | 416 kts | 228° |
| 2026-05-03 21:05 | 49.46008 | 10.73371 | 36058 ft | 417 kts | 225° |
| 2026-05-03 21:06 | 49.41954 | 10.67000 | 36058 ft | 417 kts | 225° |
| 2026-05-03 21:06 | 49.37908 | 10.60623 | 36061 ft | 417 kts | 226° |
| 2026-05-03 21:07 | 49.33850 | 10.54271 | 36049 ft | 417 kts | 225° |
| 2026-05-03 21:07 | 49.29792 | 10.47936 | 36051 ft | 416 kts | 225° |
| 2026-05-03 21:08 | 49.25765 | 10.41645 | 36036 ft | 416 kts | 225° |
| 2026-05-03 21:08 | 49.21698 | 10.35322 | 36043 ft | 417 kts | 225° |
| 2026-05-03 21:09 | 49.17617 | 10.29006 | 36041 ft | 417 kts | 225° |
| 2026-05-03 21:09 | 49.13612 | 10.22586 | 36051 ft | 417 kts | 231° |
| 2026-05-03 21:10 | 49.09983 | 10.15664 | 36073 ft | 417 kts | 231° |
| 2026-05-03 21:10 | 49.06335 | 10.08767 | 36055 ft | 418 kts | 231° |
| 2026-05-03 21:11 | 49.02684 | 10.01877 | 36062 ft | 418 kts | 231° |
| 2026-05-03 21:11 | 48.99025 | 9.94995 | 36064 ft | 418 kts | 231° |
| 2026-05-03 21:12 | 48.95359 | 9.88114 | 36064 ft | 419 kts | 230° |
| 2026-05-03 21:12 | 48.91690 | 9.81245 | 36060 ft | 418 kts | 231° |
| 2026-05-03 21:13 | 48.88023 | 9.74381 | 36048 ft | 419 kts | 231° |
| 2026-05-03 21:13 | 48.84377 | 9.67561 | 36050 ft | 419 kts | 231° |
| 2026-05-03 21:14 | 48.80697 | 9.60711 | 36057 ft | 419 kts | 231° |
| 2026-05-03 21:14 | 48.77018 | 9.53889 | 36054 ft | 418 kts | 231° |
| 2026-05-03 21:15 | 48.73326 | 9.47065 | 36055 ft | 418 kts | 231° |
| 2026-05-03 21:15 | 48.69636 | 9.40264 | 36053 ft | 418 kts | 231° |
| 2026-05-03 21:16 | 48.65948 | 9.33464 | 36046 ft | 418 kts | 231° |
| 2026-05-03 21:16 | 48.62257 | 9.26681 | 36046 ft | 417 kts | 231° |
| 2026-05-03 21:17 | 48.59308 | 9.20907 | 36045 ft | 417 kts | 234° |
| 2026-05-03 21:17 | 48.55432 | 9.12511 | 36045 ft | 417 kts | 235° |
| 2026-05-03 21:18 | 48.52131 | 9.05320 | 36060 ft | 416 kts | 235° |
| 2026-05-03 21:18 | 48.48787 | 8.98222 | 36057 ft | 415 kts | 234° |
| 2026-05-03 21:19 | 48.45420 | 8.91181 | 36058 ft | 414 kts | 234° |
| 2026-05-03 21:19 | 48.42047 | 8.84146 | 36056 ft | 414 kts | 234° |
| 2026-05-03 21:20 | 48.38687 | 8.77114 | 36060 ft | 414 kts | 234° |
| 2026-05-03 21:20 | 48.35331 | 8.70099 | 36059 ft | 413 kts | 234° |
| 2026-05-03 21:21 | 48.31970 | 8.63090 | 36056 ft | 413 kts | 234° |
| 2026-05-03 21:21 | 48.28607 | 8.56080 | 36074 ft | 413 kts | 234° |
| 2026-05-03 21:22 | 48.25236 | 8.49100 | 36077 ft | 412 kts | 234° |
| 2026-05-03 21:22 | 48.21892 | 8.42207 | 36073 ft | 411 kts | 234° |
| 2026-05-03 21:23 | 48.18515 | 8.35284 | 36072 ft | 411 kts | 232° |
| 2026-05-03 21:23 | 48.14317 | 8.29529 | 36071 ft | 412 kts | 214° |
| 2026-05-03 21:24 | 48.09491 | 8.24890 | 36068 ft | 412 kts | 214° |
| 2026-05-03 21:24 | 48.04669 | 8.20244 | 36068 ft | 413 kts | 214° |
| 2026-05-03 21:25 | 47.99842 | 8.15599 | 36076 ft | 413 kts | 214° |
| 2026-05-03 21:25 | 47.95006 | 8.10954 | 36074 ft | 413 kts | 214° |
| 2026-05-03 21:26 | 47.90172 | 8.06327 | 36063 ft | 413 kts | 214° |
| 2026-05-03 21:26 | 47.85329 | 8.01694 | 36069 ft | 414 kts | 214° |
| 2026-05-03 21:27 | 47.80479 | 7.97074 | 36076 ft | 414 kts | 214° |
| 2026-05-03 21:27 | 47.75623 | 7.92461 | 36071 ft | 414 kts | 214° |
| 2026-05-03 21:28 | 47.70763 | 7.87848 | 36062 ft | 414 kts | 214° |
| 2026-05-03 21:28 | 47.65938 | 7.83281 | 36065 ft | 414 kts | 214° |
| 2026-05-03 21:29 | 47.61077 | 7.78696 | 36065 ft | 415 kts | 214° |
| 2026-05-03 21:29 | 47.56200 | 7.74098 | 36071 ft | 416 kts | 214° |
| 2026-05-03 21:30 | 47.51318 | 7.69503 | 36064 ft | 415 kts | 214° |
| 2026-05-03 21:30 | 47.46453 | 7.64941 | 36067 ft | 414 kts | 214° |
| 2026-05-03 21:31 | 47.41587 | 7.60378 | 36073 ft | 414 kts | 214° |
| 2026-05-03 21:31 | 47.36718 | 7.55831 | 36078 ft | 414 kts | 214° |
| 2026-05-03 21:32 | 47.31832 | 7.51272 | 36073 ft | 416 kts | 214° |
| 2026-05-03 21:32 | 47.26940 | 7.46725 | 36102 ft | 416 kts | 214° |
| 2026-05-03 21:33 | 47.22053 | 7.42195 | 36109 ft | 415 kts | 214° |
| 2026-05-03 21:33 | 47.17246 | 7.37528 | 36104 ft | 413 kts | 221° |
| 2026-05-03 21:34 | 47.13418 | 7.31386 | 36097 ft | 410 kts | 232° |
| 2026-05-03 21:34 | 47.09868 | 7.24827 | 36087 ft | 410 kts | 232° |
| 2026-05-03 21:35 | 47.06308 | 7.18288 | 36087 ft | 410 kts | 232° |
| 2026-05-03 21:35 | 47.02746 | 7.11757 | 36090 ft | 410 kts | 232° |
| 2026-05-03 21:36 | 46.99179 | 7.05227 | 36094 ft | 411 kts | 232° |
| 2026-05-03 21:36 | 46.95616 | 6.98705 | 36087 ft | 410 kts | 232° |
| 2026-05-03 21:37 | 46.92043 | 6.92201 | 36109 ft | 409 kts | 232° |
| 2026-05-03 21:37 | 46.88479 | 6.85726 | 36104 ft | 409 kts | 231° |
| 2026-05-03 21:38 | 46.84906 | 6.79273 | 36104 ft | 408 kts | 231° |
| 2026-05-03 21:38 | 46.81327 | 6.72830 | 36101 ft | 409 kts | 231° |
| 2026-05-03 21:39 | 46.77743 | 6.66383 | 36094 ft | 408 kts | 231° |
| 2026-05-03 21:39 | 46.74173 | 6.59954 | 36087 ft | 408 kts | 232° |
| 2026-05-03 21:40 | 46.70597 | 6.53541 | 36084 ft | 408 kts | 231° |
| 2026-05-03 21:40 | 46.67014 | 6.47148 | 36101 ft | 407 kts | 231° |
| 2026-05-03 21:41 | 46.63440 | 6.40770 | 36092 ft | 406 kts | 231° |
| 2026-05-03 21:41 | 46.60471 | 6.35478 | 36090 ft | 406 kts | 231° |
| 2026-05-03 21:42 | 46.56312 | 6.28086 | 36084 ft | 406 kts | 231° |
| 2026-05-03 21:42 | 46.52730 | 6.21737 | 36085 ft | 406 kts | 231° |
| 2026-05-03 21:43 | 46.49720 | 6.16432 | 36085 ft | 406 kts | 231° |
| 2026-05-03 21:43 | 46.46127 | 6.10098 | 36086 ft | 407 kts | 231° |
| 2026-05-03 21:44 | 46.42538 | 6.03770 | 36084 ft | 406 kts | 231° |
| 2026-05-03 21:44 | 46.38945 | 5.97455 | 36099 ft | 405 kts | 231° |
| 2026-05-03 21:45 | 46.35358 | 5.91176 | 36099 ft | 405 kts | 231° |
| 2026-05-03 21:45 | 46.31772 | 5.84905 | 36096 ft | 404 kts | 231° |
| 2026-05-03 21:46 | 46.28204 | 5.78692 | 36092 ft | 404 kts | 231° |
| 2026-05-03 21:46 | 46.24612 | 5.72447 | 36083 ft | 403 kts | 231° |
| 2026-05-03 21:47 | 46.21027 | 5.66222 | 36068 ft | 403 kts | 230° |
| 2026-05-03 21:47 | 46.17434 | 5.60004 | 36061 ft | 403 kts | 230° |
| 2026-05-03 21:48 | 46.13934 | 5.53681 | 36069 ft | 403 kts | 235° |
| 2026-05-03 21:48 | 46.10758 | 5.47015 | 36073 ft | 404 kts | 235° |
| 2026-05-03 21:49 | 46.07564 | 5.40356 | 36072 ft | 404 kts | 235° |
| 2026-05-03 21:49 | 46.04361 | 5.33712 | 36054 ft | 405 kts | 234° |
| 2026-05-03 21:50 | 46.01140 | 5.27070 | 36066 ft | 404 kts | 234° |
| 2026-05-03 21:50 | 45.97943 | 5.20451 | 36050 ft | 402 kts | 234° |
| 2026-05-03 21:51 | 45.94758 | 5.13846 | 36058 ft | 402 kts | 234° |
| 2026-05-03 21:51 | 45.91556 | 5.07250 | 36055 ft | 403 kts | 234° |
| 2026-05-03 21:52 | 45.88364 | 5.00701 | 36050 ft | 403 kts | 234° |
| 2026-05-03 21:52 | 45.85148 | 4.94110 | 36037 ft | 403 kts | 234° |
| 2026-05-03 21:53 | 45.81928 | 4.87538 | 36040 ft | 403 kts | 234° |
| 2026-05-03 21:53 | 45.78701 | 4.80958 | 36039 ft | 404 kts | 234° |
| 2026-05-03 21:54 | 45.75447 | 4.74346 | 36057 ft | 405 kts | 234° |
| 2026-05-03 21:54 | 45.72201 | 4.67761 | 36074 ft | 404 kts | 234° |
| 2026-05-03 21:55 | 45.68965 | 4.61191 | 36073 ft | 404 kts | 234° |
| 2026-05-03 21:55 | 45.65735 | 4.54628 | 36064 ft | 403 kts | 234° |
| 2026-05-03 21:56 | 45.62500 | 4.48082 | 36066 ft | 403 kts | 234° |
| 2026-05-03 21:56 | 45.59255 | 4.41563 | 36066 ft | 403 kts | 234° |
| 2026-05-03 21:57 | 45.56003 | 4.35056 | 36063 ft | 403 kts | 234° |
| 2026-05-03 21:57 | 45.52753 | 4.28562 | 36061 ft | 402 kts | 234° |
| 2026-05-03 21:58 | 45.49506 | 4.22069 | 36068 ft | 402 kts | 234° |
| 2026-05-03 21:58 | 45.46254 | 4.15587 | 36067 ft | 402 kts | 233° |
| 2026-05-03 21:59 | 45.42996 | 4.09110 | 36066 ft | 402 kts | 233° |
| 2026-05-03 21:59 | 45.39741 | 4.02634 | 36065 ft | 402 kts | 233° |
| 2026-05-03 22:00 | 45.36476 | 3.96179 | 36064 ft | 402 kts | 233° |
| 2026-05-03 22:00 | 45.33207 | 3.89733 | 36066 ft | 402 kts | 233° |
| 2026-05-03 22:01 | 45.29932 | 3.83292 | 36069 ft | 402 kts | 233° |
| 2026-05-03 22:01 | 45.26680 | 3.76901 | 36068 ft | 402 kts | 233° |
| 2026-05-03 22:02 | 45.23430 | 3.70448 | 36070 ft | 402 kts | 234° |
| 2026-05-03 22:02 | 45.20243 | 3.63936 | 36069 ft | 402 kts | 234° |
| 2026-05-03 22:03 | 45.17059 | 3.57417 | 36069 ft | 402 kts | 234° |
| 2026-05-03 22:03 | 45.13859 | 3.50934 | 36063 ft | 401 kts | 234° |
| 2026-05-03 22:04 | 45.10651 | 3.44472 | 36050 ft | 401 kts | 234° |
| 2026-05-03 22:04 | 45.07439 | 3.38015 | 36053 ft | 401 kts | 234° |
| 2026-05-03 22:05 | 45.04224 | 3.31573 | 36046 ft | 401 kts | 234° |
| 2026-05-03 22:05 | 45.01003 | 3.25119 | 36054 ft | 402 kts | 234° |
| 2026-05-03 22:06 | 44.97783 | 3.18667 | 36055 ft | 402 kts | 234° |
| 2026-05-03 22:06 | 44.94551 | 3.12221 | 36050 ft | 403 kts | 234° |
| 2026-05-03 22:07 | 44.91313 | 3.05767 | 36062 ft | 403 kts | 234° |
| 2026-05-03 22:07 | 44.88069 | 2.99329 | 36079 ft | 402 kts | 233° |
| 2026-05-03 22:08 | 44.84825 | 2.92903 | 36077 ft | 402 kts | 234° |
| 2026-05-03 22:08 | 44.81715 | 2.86367 | 36061 ft | 401 kts | 236° |
| 2026-05-03 22:09 | 44.78726 | 2.79734 | 36053 ft | 401 kts | 236° |
| 2026-05-03 22:10 | 44.74213 | 2.69827 | 36048 ft | 401 kts | 236° |
| 2026-05-03 22:10 | 44.71161 | 2.63260 | 36064 ft | 401 kts | 235° |
| 2026-05-03 22:11 | 44.68133 | 2.56748 | 36050 ft | 400 kts | 235° |
| 2026-05-03 22:11 | 44.65086 | 2.50204 | 36045 ft | 400 kts | 235° |
| 2026-05-03 22:12 | 44.62032 | 2.43667 | 36040 ft | 400 kts | 235° |
| 2026-05-03 22:12 | 44.58978 | 2.37139 | 36019 ft | 400 kts | 236° |
| 2026-05-03 22:13 | 44.55919 | 2.30614 | 36022 ft | 401 kts | 236° |
| 2026-05-03 22:13 | 44.52852 | 2.24088 | 36039 ft | 401 kts | 235° |
| 2026-05-03 22:14 | 44.49787 | 2.17573 | 36038 ft | 400 kts | 235° |
| 2026-05-03 22:14 | 44.46718 | 2.11068 | 36027 ft | 400 kts | 235° |
| 2026-05-03 22:15 | 44.43646 | 2.04564 | 36023 ft | 400 kts | 235° |
| 2026-05-03 22:15 | 44.40571 | 1.98071 | 36013 ft | 400 kts | 235° |
| 2026-05-03 22:16 | 44.37481 | 1.91586 | 35987 ft | 401 kts | 235° |
| 2026-05-03 22:16 | 44.34392 | 1.85097 | 36008 ft | 401 kts | 235° |
| 2026-05-03 22:17 | 44.31308 | 1.78610 | 36001 ft | 401 kts | 235° |
| 2026-05-03 22:17 | 44.28218 | 1.72119 | 36005 ft | 401 kts | 236° |
| 2026-05-03 22:18 | 44.25226 | 1.65622 | 35998 ft | 400 kts | 236° |
| 2026-05-03 22:18 | 44.22244 | 1.59062 | 35993 ft | 401 kts | 236° |
| 2026-05-03 22:19 | 44.19245 | 1.52513 | 36006 ft | 401 kts | 237° |
| 2026-05-03 22:19 | 44.16227 | 1.45977 | 35995 ft | 401 kts | 236° |
| 2026-05-03 22:20 | 44.13205 | 1.39450 | 35997 ft | 401 kts | 236° |
| 2026-05-03 22:20 | 44.10178 | 1.32933 | 35989 ft | 401 kts | 236° |
| 2026-05-03 22:21 | 44.07141 | 1.26410 | 35983 ft | 401 kts | 236° |
| 2026-05-03 22:21 | 44.04105 | 1.19899 | 35990 ft | 401 kts | 236° |
| 2026-05-03 22:22 | 44.01063 | 1.13397 | 36000 ft | 401 kts | 236° |
| 2026-05-03 22:22 | 43.98031 | 1.06906 | 36001 ft | 400 kts | 236° |
| 2026-05-03 22:23 | 43.94993 | 1.00438 | 35996 ft | 400 kts | 236° |
| 2026-05-03 22:23 | 43.91957 | 0.93981 | 35994 ft | 399 kts | 236° |
| 2026-05-03 22:24 | 43.88828 | 0.87635 | 35985 ft | 398 kts | 229° |
| 2026-05-03 22:24 | 43.84805 | 0.82353 | 35996 ft | 399 kts | 223° |
| 2026-05-03 22:25 | 43.80669 | 0.77233 | 35975 ft | 399 kts | 223° |
| 2026-05-03 22:25 | 43.76536 | 0.72117 | 35999 ft | 399 kts | 222° |
| 2026-05-03 22:26 | 43.72400 | 0.67030 | 35999 ft | 397 kts | 222° |
| 2026-05-03 22:26 | 43.68273 | 0.61960 | 35997 ft | 397 kts | 222° |
| 2026-05-03 22:27 | 43.64152 | 0.56903 | 35982 ft | 396 kts | 222° |
| 2026-05-03 22:27 | 43.60033 | 0.51863 | 35960 ft | 396 kts | 222° |
| 2026-05-03 22:28 | 43.55903 | 0.46823 | 35963 ft | 397 kts | 222° |
| 2026-05-03 22:28 | 43.51797 | 0.41802 | 35972 ft | 397 kts | 222° |
| 2026-05-03 22:29 | 43.47660 | 0.36775 | 35993 ft | 397 kts | 222° |
| 2026-05-03 22:29 | 43.43516 | 0.31750 | 35977 ft | 397 kts | 222° |
| 2026-05-03 22:30 | 43.39374 | 0.26717 | 35959 ft | 398 kts | 222° |
| 2026-05-03 22:30 | 43.35920 | 0.22528 | 35971 ft | 399 kts | 222° |
| 2026-05-03 22:31 | 43.31754 | 0.17498 | 35977 ft | 398 kts | 222° |
| 2026-05-03 22:31 | 43.27599 | 0.12481 | 35978 ft | 399 kts | 222° |
| 2026-05-03 22:32 | 43.23420 | 0.07458 | 35977 ft | 399 kts | 222° |
| 2026-05-03 22:32 | 43.19245 | 0.02446 | 35975 ft | 399 kts | 222° |
| 2026-05-03 22:33 | 43.15076 | -0.02559 | 35993 ft | 397 kts | 222° |
| 2026-05-03 22:33 | 43.10922 | -0.07542 | 35993 ft | 395 kts | 221° |
| 2026-05-03 22:34 | 43.06792 | -0.12488 | 35973 ft | 394 kts | 221° |
| 2026-05-03 22:34 | 43.02649 | -0.17418 | 35963 ft | 395 kts | 221° |
| 2026-05-03 22:35 | 42.98491 | -0.22354 | 35953 ft | 397 kts | 222° |
| 2026-05-03 22:35 | 42.94320 | -0.27298 | 35965 ft | 398 kts | 222° |
| 2026-05-03 22:36 | 42.90137 | -0.32261 | 35975 ft | 398 kts | 222° |
| 2026-05-03 22:36 | 42.85977 | -0.37189 | 35976 ft | 399 kts | 222° |
| 2026-05-03 22:37 | 42.81764 | -0.42095 | 35985 ft | 399 kts | 218° |
| 2026-05-03 22:37 | 42.76833 | -0.45602 | 35996 ft | 403 kts | 204° |
| 2026-05-03 22:38 | 42.71599 | -0.48347 | 35994 ft | 403 kts | 204° |
| 2026-05-03 22:38 | 42.66363 | -0.51101 | 36006 ft | 404 kts | 204° |
| 2026-05-03 22:39 | 42.61133 | -0.53860 | 36003 ft | 402 kts | 204° |
| 2026-05-03 22:39 | 42.55904 | -0.56612 | 36010 ft | 404 kts | 204° |
| 2026-05-03 22:40 | 42.50650 | -0.59352 | 36020 ft | 405 kts | 204° |
| 2026-05-03 22:40 | 42.45389 | -0.62086 | 36019 ft | 405 kts | 204° |
| 2026-05-03 22:41 | 42.40128 | -0.64834 | 36014 ft | 405 kts | 204° |
| 2026-05-03 22:41 | 42.34866 | -0.67579 | 36024 ft | 405 kts | 204° |
| 2026-05-03 22:42 | 42.29607 | -0.70300 | 36025 ft | 405 kts | 204° |
| 2026-05-03 22:42 | 42.24355 | -0.73030 | 36022 ft | 404 kts | 204° |
| 2026-05-03 22:43 | 42.19095 | -0.75762 | 36007 ft | 407 kts | 205° |
| 2026-05-03 22:43 | 42.13813 | -0.78490 | 36032 ft | 406 kts | 205° |
| 2026-05-03 22:44 | 42.08542 | -0.81203 | 36032 ft | 405 kts | 205° |
| 2026-05-03 22:44 | 42.03278 | -0.83916 | 36031 ft | 404 kts | 205° |
| 2026-05-03 22:45 | 41.98058 | -0.86591 | 36016 ft | 404 kts | 205° |
| 2026-05-03 22:45 | 41.92805 | -0.89283 | 36009 ft | 404 kts | 205° |
| 2026-05-03 22:46 | 41.87509 | -0.92004 | 36001 ft | 405 kts | 205° |
| 2026-05-03 22:46 | 41.82281 | -0.94679 | 36006 ft | 405 kts | 205° |
| 2026-05-03 22:47 | 41.77010 | -0.97369 | 35985 ft | 406 kts | 205° |
| 2026-05-03 22:47 | 41.71735 | -1.00051 | 35992 ft | 405 kts | 205° |
| 2026-05-03 22:48 | 41.66541 | -1.02925 | 35992 ft | 401 kts | 213° |
| 2026-05-03 22:48 | 41.62176 | -1.07441 | 35994 ft | 397 kts | 224° |
| 2026-05-03 22:49 | 41.58083 | -1.12395 | 35995 ft | 397 kts | 224° |
| 2026-05-03 22:49 | 41.53988 | -1.17338 | 35998 ft | 397 kts | 224° |
| 2026-05-03 22:50 | 41.49899 | -1.22264 | 36002 ft | 396 kts | 224° |
| 2026-05-03 22:50 | 41.45799 | -1.27181 | 36002 ft | 396 kts | 224° |
| 2026-05-03 22:51 | 41.41701 | -1.32090 | 36009 ft | 396 kts | 224° |
| 2026-05-03 22:51 | 41.37599 | -1.36998 | 36007 ft | 397 kts | 224° |
| 2026-05-03 22:52 | 41.33495 | -1.41907 | 35991 ft | 397 kts | 224° |
| 2026-05-03 22:52 | 41.29384 | -1.46810 | 36000 ft | 397 kts | 224° |
| 2026-05-03 22:53 | 41.25269 | -1.51715 | 36008 ft | 397 kts | 224° |
| 2026-05-03 22:53 | 41.21176 | -1.56580 | 36033 ft | 397 kts | 224° |
| 2026-05-03 22:54 | 41.17057 | -1.61459 | 36031 ft | 397 kts | 224° |
| 2026-05-03 22:54 | 41.12937 | -1.66338 | 36032 ft | 397 kts | 224° |
| 2026-05-03 22:55 | 41.08823 | -1.71211 | 36030 ft | 396 kts | 224° |
| 2026-05-03 22:55 | 41.04715 | -1.76069 | 36039 ft | 395 kts | 224° |
| 2026-05-03 22:56 | 41.00605 | -1.80906 | 36036 ft | 395 kts | 224° |
| 2026-05-03 22:56 | 40.96495 | -1.85735 | 36039 ft | 395 kts | 224° |
| 2026-05-03 22:57 | 40.92385 | -1.90554 | 36040 ft | 395 kts | 224° |
| 2026-05-03 22:57 | 40.88271 | -1.95374 | 36042 ft | 394 kts | 224° |
| 2026-05-03 22:58 | 40.84172 | -2.00161 | 36048 ft | 393 kts | 224° |
| 2026-05-03 22:58 | 40.80114 | -2.04906 | 36047 ft | 392 kts | 224° |
| 2026-05-03 22:59 | 40.76029 | -2.09671 | 36048 ft | 392 kts | 224° |
| 2026-05-03 22:59 | 40.71943 | -2.14417 | 36047 ft | 391 kts | 224° |
| 2026-05-03 23:00 | 40.67863 | -2.19155 | 36046 ft | 391 kts | 224° |
| 2026-05-03 23:00 | 40.63773 | -2.23889 | 36048 ft | 391 kts | 224° |
| 2026-05-03 23:01 | 40.59686 | -2.28603 | 36050 ft | 391 kts | 224° |
| 2026-05-03 23:01 | 40.55599 | -2.33318 | 36058 ft | 391 kts | 224° |
| 2026-05-03 23:02 | 40.51516 | -2.38023 | 36051 ft | 390 kts | 224° |
| 2026-05-03 23:02 | 40.47429 | -2.42720 | 36046 ft | 390 kts | 224° |
| 2026-05-03 23:03 | 40.43344 | -2.47402 | 36026 ft | 390 kts | 224° |
| 2026-05-03 23:03 | 40.39318 | -2.52148 | 36027 ft | 387 kts | 230° |
| 2026-05-03 23:04 | 40.36485 | -2.58052 | 36027 ft | 384 kts | 249° |
| 2026-05-03 23:04 | 40.34985 | -2.64726 | 36030 ft | 385 kts | 253° |
| 2026-05-03 23:05 | 40.33529 | -2.71472 | 36048 ft | 384 kts | 252° |
| 2026-05-03 23:05 | 40.32059 | -2.78207 | 36038 ft | 385 kts | 252° |
| 2026-05-03 23:06 | 40.30588 | -2.84932 | 36033 ft | 384 kts | 252° |
| 2026-05-03 23:06 | 40.29114 | -2.91654 | 36028 ft | 384 kts | 252° |
| 2026-05-03 23:07 | 40.27640 | -2.98372 | 36029 ft | 384 kts | 252° |
| 2026-05-03 23:07 | 40.26162 | -3.05082 | 36028 ft | 384 kts | 252° |
| 2026-05-03 23:08 | 40.24678 | -3.11785 | 36031 ft | 383 kts | 252° |
| 2026-05-03 23:08 | 40.23194 | -3.18473 | 36027 ft | 383 kts | 252° |
| 2026-05-03 23:09 | 40.21707 | -3.25160 | 36022 ft | 382 kts | 252° |
| 2026-05-03 23:09 | 40.20225 | -3.31834 | 36009 ft | 382 kts | 252° |
| 2026-05-03 23:10 | 40.18745 | -3.38450 | 36013 ft | 381 kts | 252° |
| 2026-05-03 23:10 | 40.17257 | -3.45102 | 36037 ft | 381 kts | 252° |
| 2026-05-03 23:11 | 40.15764 | -3.51743 | 36030 ft | 380 kts | 252° |
| 2026-05-03 23:11 | 40.14275 | -3.58372 | 36024 ft | 380 kts | 252° |
| 2026-05-03 23:12 | 40.12776 | -3.64997 | 36021 ft | 380 kts | 252° |
| 2026-05-03 23:12 | 40.11267 | -3.71614 | 36016 ft | 380 kts | 252° |
| 2026-05-03 23:13 | 40.09761 | -3.78235 | 36012 ft | 380 kts | 252° |
| 2026-05-03 23:13 | 40.08258 | -3.84847 | 36035 ft | 380 kts | 252° |
| 2026-05-03 23:14 | 40.06746 | -3.91451 | 36026 ft | 380 kts | 252° |
| 2026-05-03 23:14 | 40.05223 | -3.98063 | 36025 ft | 380 kts | 252° |
| 2026-05-03 23:15 | 40.03696 | -4.04658 | 36025 ft | 379 kts | 251° |
| 2026-05-03 23:15 | 40.02165 | -4.11279 | 36023 ft | 379 kts | 252° |
| 2026-05-03 23:16 | 39.99875 | -4.21173 | 36017 ft | 379 kts | 251° |
| 2026-05-03 23:16 | 39.96807 | -4.34325 | 36020 ft | 379 kts | 252° |
| 2026-05-03 23:17 | 39.94108 | -4.47632 | 36005 ft | 379 kts | 254° |
| 2026-05-03 23:17 | 39.91438 | -4.60891 | 36038 ft | 378 kts | 253° |
| 2026-05-03 23:18 | 39.88716 | -4.74080 | 36036 ft | 377 kts | 253° |
| 2026-05-03 23:18 | 39.86001 | -4.87263 | 36029 ft | 377 kts | 253° |
| 2026-05-03 23:19 | 39.83264 | -5.00444 | 36035 ft | 377 kts | 253° |
| 2026-05-03 23:19 | 39.80512 | -5.13619 | 36025 ft | 378 kts | 253° |
| 2026-05-03 23:20 | 39.77728 | -5.26823 | 36023 ft | 379 kts | 253° |
| 2026-05-03 23:20 | 39.74936 | -5.40033 | 36036 ft | 379 kts | 253° |
| 2026-05-03 23:21 | 39.72592 | -5.51002 | 36031 ft | 379 kts | 253° |
| 2026-05-03 23:21 | 39.69767 | -5.64200 | 36046 ft | 379 kts | 253° |
| 2026-05-03 23:22 | 39.65510 | -5.83964 | 36017 ft | 379 kts | 252° |
| 2026-05-03 23:22 | 39.62663 | -5.97090 | 36043 ft | 377 kts | 252° |
| 2026-05-03 23:23 | 39.59810 | -6.10161 | 36064 ft | 376 kts | 252° |
| 2026-05-03 23:23 | 39.56935 | -6.23198 | 36056 ft | 376 kts | 252° |
| 2026-05-03 23:24 | 39.54055 | -6.36212 | 36049 ft | 376 kts | 252° |
| 2026-05-03 23:24 | 39.50402 | -6.48828 | 36059 ft | 375 kts | 243° |
| 2026-05-03 23:25 | 39.45754 | -6.60943 | 36055 ft | 376 kts | 244° |
| 2026-05-03 23:25 | 39.41279 | -6.72580 | 36055 ft | 376 kts | 244° |
| 2026-05-03 23:26 | 39.38944 | -6.78635 | 36057 ft | 376 kts | 243° |
| 2026-05-03 23:26 | 39.36603 | -6.84685 | 36051 ft | 376 kts | 244° |
| 2026-05-03 23:27 | 39.34261 | -6.90727 | 36070 ft | 376 kts | 243° |
| 2026-05-03 23:27 | 39.31916 | -6.96759 | 36071 ft | 375 kts | 244° |
| 2026-05-03 23:28 | 39.29591 | -7.02744 | 36083 ft | 375 kts | 243° |
| 2026-05-03 23:28 | 39.28414 | -7.05762 | 35973 ft | 381 kts | 243° |
| 2026-05-03 23:28 | 39.27206 | -7.08858 | 35271 ft | 389 kts | 243° |
| 2026-05-03 23:29 | 39.25997 | -7.11967 | 34636 ft | 386 kts | 243° |
| 2026-05-03 23:29 | 39.24805 | -7.15025 | 34201 ft | 378 kts | 243° |